Time;durP1;ratioP1;P1;durP2;ratioP2;P2;SDS_P1;SDS_P2;PMS_P1;PMS_P2;Temp;Humidity;BMP_temperature;BMP_pressure;BME280_temperature;BME280_humidity;BME280_pressure;Samples;Min_cycle;Max_cycle;Signal;HPM_P1;HPM_P2
2022/05/09 00:01:47;;;;;;;;;;;;;;;;;;5066303;28;19905;-55
2022/05/09 00:04:13;;;;;;;;;;;;;;;;;;5085781;28;20391;-54
2022/05/09 00:06:39;;;;;;;;;;;;;;;;;;5085227;28;19904;-54
2022/05/09 00:09:06;;;;;;;;;;;;;;;;;;5087177;28;19915;-56
2022/05/09 00:11:32;;;;;;;;;;;;;;;;;;5086483;28;20301;-53
2022/05/09 00:13:58;;;;;;;;;;;;;;;;;;5086591;28;19899;-55
2022/05/09 00:16:24;;;;;;;;;;;;;;;;;;5086580;28;20071;-54
2022/05/09 00:18:51;;;;;;;;;;;;;;;;;;5084478;28;19904;-55
2022/05/09 00:21:18;;;;;;;;;;;;;;;;;;5086830;28;19950;-55
2022/05/09 00:23:45;;;;;;;;;;;;;;;;;;5086599;28;19904;-56
2022/05/09 00:26:11;;;;;;;;;;;;;;;;;;5086949;28;20379;-55
2022/05/09 00:28:38;;;;;;;;;;;;;;;;;;5086591;28;19908;-55
2022/05/09 00:31:04;;;;;;;;;;;;;;;;;;5086329;28;19970;-54
2022/05/09 00:33:30;;;;;;;;;;;;;;;;;;5086033;28;19904;-55
2022/05/09 00:35:57;;;;;;;;;;;;;;;;;;5086182;28;19999;-55
2022/05/09 00:38:23;;;;;;;;;;;;;;;;;;5086045;28;19904;-55
2022/05/09 00:43:34;;;;;;;;;;;;;;;;;;5085870;28;19981;-55
2022/05/09 00:46:00;;;;;;;;;;;;;;;;;;5085897;28;19908;-54
2022/05/09 00:48:26;;;;;;;;;;;;;;;;;;5085891;28;20318;-55
2022/05/09 00:50:52;;;;;;;;;;;;;;;;;;5086107;28;19904;-55
2022/05/09 00:53:18;;;;;;;;;;;;;;;;;;5086035;28;19945;-55
2022/05/09 00:55:45;;;;;;;;;;;;;;;;;;5086338;28;19908;-54
2022/05/09 00:58:12;;;;;;;;;;;;;;;;;;5085905;28;19911;-55
2022/05/09 01:00:38;;;;;;;;;;;;;;;;;;5083872;28;20356;-54
2022/05/09 01:03:04;;;;;;;;;;;;;;;;;;5085559;28;19904;-54
2022/05/09 01:05:31;;;;;;;;;;;;;;;;;;5085542;28;19953;-54
2022/05/09 01:07:58;;;;;;;;;;;;;;;;;;5085743;28;19942;-54
2022/05/09 01:10:24;;;;;;;;;;;;;;;;;;5085760;28;19904;-55
2022/05/09 01:12:51;;;;;;;;;;;;;;;;;;5085439;28;19910;-54
2022/05/09 01:15:17;;;;;;;;;;;;;;;;;;5085521;28;19907;-55
2022/05/09 01:17:43;;;;;;;;;;;;;;;;;;5085810;28;19904;-55
2022/05/09 01:20:09;;;;;;;;;;;;;;;;;;5085579;28;20367;-54
2022/05/09 01:22:36;;;;;;;;;;;;;;;;;;5085257;28;19912;-53
2022/05/09 01:25:03;;;;;;;;;;;;;;;;;;5085554;28;19915;-56
2022/05/09 01:27:30;;;;;;;;;;;;;;;;;;5085451;28;19911;-55
2022/05/09 01:29:57;;;;;;;;;;;;;;;;;;5085275;28;19915;-55
2022/05/09 01:32:23;;;;;;;;;;;;;;;;;;5085260;28;19973;-54
2022/05/09 01:34:49;;;;;;;;;;;;;;;;;;5085252;28;19914;-51
2022/05/09 01:37:15;;;;;;;;;;;;;;;;;;5086025;28;19908;-54
2022/05/09 01:39:42;;;;;;;;;;;;;;;;;;5085279;28;19908;-54
2022/05/09 01:42:08;;;;;;;;;;;;;;;;;;5085209;28;20382;-54
2022/05/09 01:44:35;;;;;;;;;;;;;;;;;;5085138;28;19915;-54
2022/05/09 01:49:47;;;;;;;;;;;;;;;;;;5085516;28;20101;-55
2022/05/09 01:52:15;;;;;;;;;;;;;;;;;;5089885;28;19904;-55
2022/05/09 01:54:43;;;;;;;;;;;;;;;;;;5089453;28;19916;-54
2022/05/09 01:57:08;;;;;;;;;;;;;;;;;;5089298;28;19904;-54
2022/05/09 01:59:34;;;;;;;;;;;;;;;;;;5088824;28;19907;-53
2022/05/09 02:02:00;;;;;;;;;;;;;;;;;;5089296;28;20320;-54
2022/05/09 02:04:26;;;;;;;;;;;;;;;;;;5089059;28;20015;-55
2022/05/09 02:06:52;;;;;;;;;;;;;;;;;;5089129;28;19912;-54
2022/05/09 02:09:19;;;;;;;;;;;;;;;;;;5089237;28;19953;-55
2022/05/09 02:11:45;;;;;;;;;;;;;;;;;;5089823;28;20356;-54
2022/05/09 02:14:12;;;;;;;;;;;;;;;;;;5088991;28;19907;-54
2022/05/09 02:16:38;;;;;;;;;;;;;;;;;;5088718;28;20340;-54
2022/05/09 02:19:05;;;;;;;;;;;;;;;;;;5088976;28;19908;-54
2022/05/09 02:21:32;;;;;;;;;;;;;;;;;;5089205;28;19911;-55
2022/05/09 02:23:58;;;;;;;;;;;;;;;;;;5088743;28;20097;-54
2022/05/09 02:26:27;;;;;;;;;;;;;;;;;;5089013;28;20334;-55
2022/05/09 02:28:53;;;;;;;;;;;;;;;;;;5088637;28;19904;-55
2022/05/09 02:31:20;;;;;;;;;;;;;;;;;;5089084;28;19904;-55
2022/05/09 02:33:46;;;;;;;;;;;;;;;;;;5089153;28;19909;-54
2022/05/09 02:36:12;;;;;;;;;;;;;;;;;;5089019;28;19958;-54
2022/05/09 02:38:39;;;;;;;;;;;;;;;;;;5088477;28;19911;-55
2022/05/09 02:41:05;;;;;;;;;;;;;;;;;;5088491;28;20437;-54
2022/05/09 02:43:31;;;;;;;;;;;;;;;;;;5088107;28;20257;-54
2022/05/09 02:46:03;;;;;;;;;;;;;;;;;;5087932;28;19903;-55
2022/05/09 02:48:29;;;;;;;;;;;;;;;;;;5088574;28;20286;-55
2022/05/09 02:50:55;;;;;;;;;;;;;;;;;;5088321;28;19904;-54
2022/05/09 02:53:21;;;;;;;;;;;;;;;;;;5088294;28;19908;-55
2022/05/09 02:55:47;;;;;;;;;;;;;;;;;;5088494;28;20460;-55
2022/05/09 02:58:13;;;;;;;;;;;;;;;;;;5088839;28;19908;-54
2022/05/09 03:00:40;;;;;;;;;;;;;;;;;;5088012;28;19904;-54
2022/05/09 03:05:51;;;;;;;;;;;;;;;;;;5087930;28;19911;-54
2022/05/09 03:08:17;;;;;;;;;;;;;;;;;;5088644;28;19908;-54
2022/05/09 03:10:43;;;;;;;;;;;;;;;;;;5088194;28;19934;-54
2022/05/09 03:13:09;;;;;;;;;;;;;;;;;;5087809;28;19904;-54
2022/05/09 03:15:37;;;;;;;;;;;;;;;;;;5087413;28;19919;-54
2022/05/09 03:18:02;;;;;;;;;;;;;;;;;;5087999;28;19944;-54
2022/05/09 03:20:29;;;;;;;;;;;;;;;;;;5087471;28;20354;-54
2022/05/09 03:22:55;;;;;;;;;;;;;;;;;;5087656;28;19904;-54
2022/05/09 03:25:22;;;;;;;;;;;;;;;;;;5087533;28;20386;-55
2022/05/09 03:27:48;;;;;;;;;;;;;;;;;;5087415;28;19900;-53
2022/05/09 03:30:14;;;;;;;;;;;;;;;;;;5087884;28;19962;-54
2022/05/09 03:32:40;;;;;;;;;;;;;;;;;;5087368;28;19930;-54
2022/05/09 03:35:07;;;;;;;;;;;;;;;;;;5087387;28;19957;-53
2022/05/09 03:37:33;;;;;;;;;;;;;;;;;;5087466;28;19958;-55
2022/05/09 03:39:59;;;;;;;;;;;;;;;;;;5087211;28;19904;-55
2022/05/09 03:42:25;;;;;;;;;;;;;;;;;;5087434;28;20006;-54
2022/05/09 03:44:51;;;;;;;;;;;;;;;;;;5087511;28;19907;-54
2022/05/09 03:47:18;;;;;;;;;;;;;;;;;;5087303;28;19912;-55
2022/05/09 03:49:45;;;;;;;;;;;;;;;;;;5087428;28;20378;-52
2022/05/09 03:52:11;;;;;;;;;;;;;;;;;;5087147;28;19910;-54
2022/05/09 03:54:37;;;;;;;;;;;;;;;;;;5086629;28;20939;-54
2022/05/09 03:57:03;;;;;;;;;;;;;;;;;;5087056;28;20002;-54
2022/05/09 03:59:29;;;;;;;;;;;;;;;;;;5086368;28;19908;-54
2022/05/09 04:01:56;;;;;;;;;;;;;;;;;;5086929;28;19961;-52
2022/05/09 04:04:23;;;;;;;;;;;;;;;;;;5086980;28;20390;-54
2022/05/09 04:06:52;;;;;;;;;;;;;;;;;;5086705;28;19911;-54
2022/05/09 04:09:18;;;;;;;;;;;;;;;;;;5086695;28;19927;-53
2022/05/09 04:11:47;;;;;;;;;;;;;;;;;;5087252;28;19935;-51
2022/05/09 04:14:12;;;;;;;;;;;;;;;;;;5086773;28;19908;-54
2022/05/09 04:16:50;;;;;;;;;;;;;;;;;;5086463;28;20373;-54
2022/05/09 04:19:16;;;;;;;;;;;;;;;;;;5087007;28;19911;-55
2022/05/09 04:21:43;;;;;;;;;;;;;;;;;;5086625;28;19907;-55
2022/05/09 04:24:10;;;;;;;;;;;;;;;;;;5086611;28;19938;-54
2022/05/09 04:26:37;;;;;;;;;;;;;;;;;;5086277;28;19907;-54
2022/05/09 04:29:03;;;;;;;;;;;;;;;;;;5083201;28;19960;-54
2022/05/09 04:31:30;;;;;;;;;;;;;;;;;;5086756;28;19903;-54
2022/05/09 04:33:57;;;;;;;;;;;;;;;;;;5085572;28;20113;-54
2022/05/09 04:36:23;;;;;;;;;;;;;;;;;;5044575;28;19913;-54
2022/05/09 04:38:51;;;;;;;;;;;;;;;;;;5045530;28;19905;-54
2022/05/09 04:41:18;;;;;;;;;;;;;;;;;;5046004;28;19958;-54
2022/05/09 04:43:45;;;;;;;;;;;;;;;;;;5045784;28;19932;-54
2022/05/09 04:46:11;;;;;;;;;;;;;;;;;;5045734;28;19991;-54
2022/05/09 04:48:40;;;;;;;;;;;;;;;;;;5045687;28;19915;-53
2022/05/09 04:51:06;;;;;;;;;;;;;;;;;;5045655;28;20383;-56
2022/05/09 04:53:32;;;;;;;;;;;;;;;;;;5045232;28;20002;-55
2022/05/09 04:55:57;;;;;;;;;;;;;;;;;;5046168;28;20214;-54
2022/05/09 04:58:23;;;;;;;;;;;;;;;;;;5051681;28;20273;-55
2022/05/09 05:00:49;;;;;;;;;;;;;;;;;;5066176;28;19950;-54
2022/05/09 05:03:15;;;;;;;;;;;;;;;;;;5066814;28;19912;-55
2022/05/09 05:05:41;;;;;;;;;;;;;;;;;;5066117;28;19913;-54
2022/05/09 05:08:07;;;;;;;;;;;;;;;;;;5066570;28;19932;-55
2022/05/09 05:10:33;;;;;;;;;;;;;;;;;;5066290;28;19914;-55
2022/05/09 05:12:59;;;;;;;;;;;;;;;;;;5067451;28;19910;-55
2022/05/09 05:15:25;;;;;;;;;;;;;;;;;;5077798;28;19915;-54
2022/05/09 05:17:51;;;;;;;;;;;;;;;;;;5066149;28;20852;-55
2022/05/09 05:20:17;;;;;;;;;;;;;;;;;;5066547;28;20004;-55
2022/05/09 05:22:43;;;;;;;;;;;;;;;;;;5065297;28;19917;-54
2022/05/09 05:25:09;;;;;;;;;;;;;;;;;;5065808;28;19901;-54
2022/05/09 05:27:35;;;;;;;;;;;;;;;;;;5066493;28;20003;-55
2022/05/09 05:30:01;;;;;;;;;;;;;;;;;;5066111;28;19908;-55
2022/05/09 05:32:27;;;;;;;;;;;;;;;;;;5067226;28;20345;-55
2022/05/09 05:34:53;;;;;;;;;;;;;;;;;;5066523;28;19965;-54
2022/05/09 05:37:19;;;;;;;;;;;;;;;;;;5065050;28;19912;-55
2022/05/09 05:39:45;;;;;;;;;;;;;;;;;;5063921;28;20057;-55
2022/05/09 05:42:11;;;;;;;;;;;;;;;;;;5064943;28;19962;-54
2022/05/09 05:44:37;;;;;;;;;;;;;;;;;;5065951;28;19915;-55
2022/05/09 05:47:04;;;;;;;;;;;;;;;;;;5066343;28;19908;-55
2022/05/09 05:49:30;;;;;;;;;;;;;;;;;;5064269;28;19915;-52
2022/05/09 05:51:59;;;;;;;;;;;;;;;;;;5066165;28;19912;-55
2022/05/09 05:54:25;;;;;;;;;;;;;;;;;;5066103;28;19919;-54
2022/05/09 05:56:51;;;;;;;;;;;;;;;;;;5066582;28;19908;-55
2022/05/09 05:59:17;;;;;;;;;;;;;;;;;;5066221;28;19915;-55
2022/05/09 06:01:43;;;;;;;;;;;;;;;;;;5066241;28;19908;-55
2022/05/09 06:04:09;;;;;;;;;;;;;;;;;;5065028;28;19919;-56
2022/05/09 06:06:35;;;;;;;;;;;;;;;;;;5066256;28;19912;-53
2022/05/09 06:09:01;;;;;;;;;;;;;;;;;;5064449;28;19904;-55
2022/05/09 06:11:27;;;;;;;;;;;;;;;;;;5063922;28;19912;-55
2022/05/09 06:13:53;;;;;;;;;;;;;;;;;;5066985;28;19908;-54
2022/05/09 06:16:19;;;;;;;;;;;;;;;;;;5063315;28;19916;-55
2022/05/09 06:18:50;;;;;;;;;;;;;;;;;;5062356;28;19913;-55
2022/05/09 06:21:16;;;;;;;;;;;;;;;;;;5065952;28;19934;-54
2022/05/09 06:23:42;;;;;;;;;;;;;;;;;;5063328;28;19912;-55
2022/05/09 06:26:08;;;;;;;;;;;;;;;;;;5064909;28;19912;-58
2022/05/09 06:28:34;;;;;;;;;;;;;;;;;;5061624;28;19955;-58
2022/05/09 06:31:01;;;;;;;;;;;;;;;;;;5066807;28;19909;-58
2022/05/09 06:33:27;;;;;;;;;;;;;;;;;;5065254;28;20057;-58
2022/05/09 06:35:53;;;;;;;;;;;;;;;;;;5066815;28;19908;-58
2022/05/09 06:38:19;;;;;;;;;;;;;;;;;;5070618;28;19912;-58
2022/05/09 06:40:45;;;;;;;;;;;;;;;;;;5070153;28;19939;-59
2022/05/09 06:43:11;;;;;;;;;;;;;;;;;;5069945;28;20375;-58
2022/05/09 06:45:37;;;;;;;;;;;;;;;;;;5068678;28;19915;-58
2022/05/09 06:48:03;;;;;;;;;;;;;;;;;;5068574;28;19904;-58
2022/05/09 06:50:29;;;;;;;;;;;;;;;;;;5074351;28;19957;-59
2022/05/09 06:52:56;;;;;;;;;;;;;;;;;;5089687;28;19907;-58
2022/05/09 06:55:22;;;;;;;;;;;;;;;;;;5075195;28;19913;-58
2022/05/09 06:57:49;;;;;;;;;;;;;;;;;;5068738;28;19912;-59
2022/05/09 07:00:15;;;;;;;;;;;;;;;;;;5065504;28;19912;-59
2022/05/09 07:02:42;;;;;;;;;;;;;;;;;;5049230;28;19916;-58
2022/05/09 07:05:08;;;;;;;;;;;;;;;;;;5061034;28;19916;-58
2022/05/09 07:07:34;;;;;;;;;;;;;;;;;;5068843;28;20659;-58
2022/05/09 07:10:00;;;;;;;;;;;;;;;;;;5068836;28;20011;-58
2022/05/09 07:12:27;;;;;;;;;;;;;;;;;;5067982;28;19916;-58
2022/05/09 07:14:54;;;;;;;;;;;;;;;;;;5068879;28;20367;-58
2022/05/09 07:17:20;;;;;;;;;;;;;;;;;;5067564;28;19969;-59
2022/05/09 07:19:47;;;;;;;;;;;;;;;;;;5070188;28;20364;-58
2022/05/09 07:22:13;;;;;;;;;;;;;;;;;;5085446;28;19912;-58
2022/05/09 07:24:40;;;;;;;;;;;;;;;;;;5069665;28;19908;-58
2022/05/09 07:27:06;;;;;;;;;;;;;;;;;;5069049;28;19978;-58
2022/05/09 07:29:32;;;;;;;;;;;;;;;;;;5069235;28;19943;-58
2022/05/09 07:31:58;;;;;;;;;;;;;;;;;;5069313;28;19930;-58
2022/05/09 07:34:24;;;;;;;;;;;;;;;;;;5069247;28;20359;-58
2022/05/09 07:36:50;;;;;;;;;;;;;;;;;;5072040;28;19916;-58
2022/05/09 07:39:16;;;;;;;;;;;;;;;;;;5073156;28;19974;-58
2022/05/09 07:41:42;;;;;;;;;;;;;;;;;;5069826;28;19904;-58
2022/05/09 07:44:08;;;;;;;;;;;;;;;;;;5058810;28;19943;-58
2022/05/09 07:46:34;;;;;;;;;;;;;;;;;;5069111;28;19946;-58
2022/05/09 07:49:00;;;;;;;;;;;;;;;;;;5067753;28;20451;-59
2022/05/09 07:51:27;;;;;;;;;;;;;;;;;;5069169;28;20040;-59
2022/05/09 07:53:53;;;;;;;;;;;;;;;;;;5069285;28;19912;-58
2022/05/09 07:56:18;;;;;;;;;;;;;;;;;;5068680;28;20426;-59
2022/05/09 07:58:44;;;;;;;;;;;;;;;;;;5068698;28;19908;-58
2022/05/09 08:01:10;;;;;;;;;;;;;;;;;;5069204;28;19991;-58
2022/05/09 08:03:38;;;;;;;;;;;;;;;;;;5068236;28;19949;-58
2022/05/09 08:06:04;;;;;;;;;;;;;;;;;;5068976;28;19908;-58
2022/05/09 08:08:30;;;;;;;;;;;;;;;;;;5067440;28;19909;-58
2022/05/09 08:10:56;;;;;;;;;;;;;;;;;;5066903;28;19909;-58
2022/05/09 08:13:22;;;;;;;;;;;;;;;;;;5067577;28;19939;-58
2022/05/09 08:15:48;;;;;;;;;;;;;;;;;;5067205;28;20378;-58
2022/05/09 08:18:15;;;;;;;;;;;;;;;;;;5066955;28;20693;-58
2022/05/09 08:20:45;;;;;;;;;;;;;;;;;;5067095;28;19909;-58
2022/05/09 08:23:11;;;;;;;;;;;;;;;;;;5068077;28;19953;-58
2022/05/09 08:25:37;;;;;;;;;;;;;;;;;;5066998;28;19904;-58
2022/05/09 08:28:05;;;;;;;1.75;1.60;;;;;;;;;;5063414;28;20360;-57
2022/05/09 08:30:34;;;;;;;1.52;1.42;;;;;;;;;;5052827;28;20028;-57
2022/05/09 08:33:00;;;;;;;1.63;1.52;;;;;;;;;;5065522;28;20017;-57
2022/05/09 08:35:27;;;;;;;1.58;1.23;;;;;;;;;;5066797;28;20033;-57
2022/05/09 08:37:54;;;;;;;1.10;1.10;;;;;;;;;;5066775;28;20027;-58
2022/05/09 08:40:24;;;;;;;1.27;1.17;;;;;;;;;;5066662;28;20035;-58
2022/05/09 08:42:57;;;;;;;1.27;1.10;;;;;;;;;;5065855;28;20056;-57
2022/05/09 08:45:23;;;;;;;1.33;1.23;;;;;;;;;;5063538;28;20055;-57
2022/05/09 08:48:01;;;;;;;1.00;0.98;;;;;;;;;;5054751;28;20069;-58
2022/05/09 08:50:27;;;;;;;;;;;;;;;;;;5067723;28;20029;-58
2022/05/09 08:52:53;;;;;;;;;;;;;;;;;;5058186;28;19905;-58
2022/05/09 08:55:19;;;;;;;;;;;;;;;;;;5067748;28;19916;-58
2022/05/09 08:57:45;;;;;;;;;;;;;;;;;;5072915;28;20034;-59
2022/05/09 09:00:11;;;;;;;;;;;;;;;;;;5072303;28;19913;-60
2022/05/09 09:02:37;;;;;;;;;;;;;;;;;;5067574;28;19905;-59
2022/05/09 09:05:03;;;;;;;;;;;;;;;;;;5067731;28;19940;-59
2022/05/09 09:07:30;;;;;;;;;;;;;;;;;;5067457;28;20032;-59
2022/05/09 09:09:56;;;;;;;;;;;;;;;;;;5065963;28;19915;-59
2022/05/09 09:12:24;;;;;;;;;;;;;;;;;;5067450;28;19905;-59
2022/05/09 09:14:50;;;;;;;;;;;;;;;;;;5067335;28;19916;-59
2022/05/09 09:17:16;;;;;;;;;;;;;;;;;;5067686;28;19913;-59
2022/05/09 09:19:42;;;;;;;;;;;;;;;;;;5062150;28;19994;-59
2022/05/09 09:22:08;;;;;;;;;;;;;;;;;;5066109;28;19908;-59
2022/05/09 09:24:34;;;;;;;;;;;;;;;;;;5067545;28;19974;-59
2022/05/09 09:27:03;;;;;;;1.00;1.00;;;;;;;;;;5065713;28;20401;-58
2022/05/09 09:29:38;;;;;;;1.05;0.98;;;;;;;;;;5066752;28;20028;-58
2022/05/09 09:32:08;;;;;;;1.20;1.10;;;;;;;;;;5067269;28;20032;-58
2022/05/09 09:34:48;;;;;;;1.00;1.00;;;;;;;;;;5066822;28;20399;-58
2022/05/09 09:37:20;;;;;;;0.85;0.85;;;;;;;;;;5067742;28;20029;-56
2022/05/09 09:39:46;;;;;;;0.82;0.82;;;;;;;;;;5066164;28;20844;-56
2022/05/09 09:42:12;;;;;;;1.23;1.13;;;;;;;;;;5063557;28;20426;-56
2022/05/09 09:44:41;;;;;;;1.20;1.10;;;;;;;;;;5066118;28;20017;-56
2022/05/09 09:47:10;;;;;;;1.20;1.10;;;;;;;;;;5072004;28;20020;-56
2022/05/09 09:49:38;;;;;;;1.38;1.27;;;;;;;;;;5066200;28;20021;-56
2022/05/09 09:52:13;;;;;;;1.38;1.27;;;;;;;;;;5067187;28;20053;-56
2022/05/09 09:54:39;;;;;;;1.20;1.10;;;;;;;;;;5065212;28;20028;-56
2022/05/09 09:57:17;;;;;;;1.33;1.13;;;;;;;;;;5057665;28;20804;-56
2022/05/09 09:59:44;;;;;;;0.80;0.80;;;;;;;;;;5066763;28;20021;-58
2022/05/09 10:02:22;;;;;;;1.23;1.13;;;;;;;;;;5065563;28;20123;-56
2022/05/09 10:04:48;;;;;;;0.90;0.90;;;;;;;;;;5065778;28;20025;-56
2022/05/09 10:07:37;;;;;;;1.00;0.98;;;;;;;;;;5066117;28;20024;-56
2022/05/09 10:10:10;;;;;;;1.70;1.30;;;;;;;;;;5066498;28;20403;-57
2022/05/09 10:12:36;;;;;;;1.67;1.58;;;;;;;;;;5069059;28;20043;-57
2022/05/09 10:15:19;;;;;;;1.38;1.27;;;;;;;;;;5070524;28;20024;-57
2022/05/09 10:17:45;;;;;;;1.15;1.05;;;;;;;;;;5069155;28;20059;-57
2022/05/09 10:20:27;;;;;;;1.63;1.52;;;;;;;;;;5069865;28;20557;-56
2022/05/09 10:25:56;;;;;;;1.20;0.98;;;;;;;;;;5072976;28;20043;-56
2022/05/09 10:28:22;;;;;;;1.13;1.10;;;;;;;;;;5068227;28;20070;-56
2022/05/09 10:30:58;;;;;;;1.20;1.10;;;;;;;;;;5068700;28;20037;-57
2022/05/09 10:33:24;;;;;;;1.17;1.10;;;;;;;;;;5069938;28;20101;-56
2022/05/09 10:35:53;;;;;;;1.13;1.02;;;;;;;;;;5067492;28;20028;-56
2022/05/09 10:38:20;;;;;;;0.98;0.98;;;;;;;;;;5051021;28;20064;-56
2022/05/09 10:40:47;;;;;;;0.95;0.95;;;;;;;;;;5052638;28;20461;-56
2022/05/09 10:43:16;;;;;;;1.27;1.13;;;;;;;;;;5069314;28;20104;-56
2022/05/09 10:45:47;;;;;;;0.98;0.98;;;;;;;;;;5069242;28;20078;-56
2022/05/09 10:48:19;;;;;;;1.02;0.95;;;;;;;;;;5069417;28;20463;-56
2022/05/09 10:50:51;;;;;;;1.25;1.15;;;;;;;;;;5069056;28;20029;-56
2022/05/09 10:53:17;;;;;;;0.80;0.80;;;;;;;;;;5068706;28;20446;-56
2022/05/09 10:55:47;;;;;;;0.88;0.88;;;;;;;;;;5068565;28;20475;-56
2022/05/09 10:58:13;;;;;;;1.20;1.10;;;;;;;;;;5069106;28;20130;-56
2022/05/09 11:00:43;;;;;;;1.45;1.35;;;;;;;;;;5067072;28;20115;-58
2022/05/09 11:03:23;;;;;;;1.23;1.13;;;;;;;;;;5066330;28;20035;-59
2022/05/09 11:05:52;;;;;;;1.02;1.00;;;;;;;;;;5068102;28;20043;-59
2022/05/09 11:08:27;;;;;;;0.88;0.88;;;;;;;;;;5064759;28;20028;-59
2022/05/09 11:10:59;;;;;;;1.40;1.30;;;;;;;;;;5067904;28;20029;-59
2022/05/09 11:13:44;;;;;;;1.20;1.10;;;;;;;;;;5068583;28;20074;-59
2022/05/09 11:16:10;;;;;;;;;;;;;;;;;;5068894;28;20033;-59
2022/05/09 11:18:49;;;;;;;0.93;0.93;;;;;;;;;;5067939;28;20394;-59
2022/05/09 11:21:38;;;;;;;1.20;1.20;;;;;;;;;;5068162;28;20024;-60
2022/05/09 11:24:04;;;;;;;;;;;;;;;;;;5039299;28;20419;-60
2022/05/09 11:26:30;;;;;;;;;;;;;;;;;;5068606;28;19915;-60
2022/05/09 11:28:57;;;;;;;;;;;;;;;;;;5068768;28;20389;-60
2022/05/09 11:31:24;;;;;;;;;;;;;;;;;;5068290;28;19904;-60
2022/05/09 11:33:50;;;;;;;;;;;;;;;;;;5068138;28;20418;-60
2022/05/09 11:36:16;;;;;;;;;;;;;;;;;;5068377;28;19920;-60
2022/05/09 11:38:43;;;;;;;;;;;;;;;;;;5068390;28;20294;-60
2022/05/09 11:41:11;;;;;;;;;;;;;;;;;;5068148;28;19908;-60
2022/05/09 11:43:38;;;;;;;;;;;;;;;;;;5067807;28;19908;-58
2022/05/09 11:46:05;;;;;;;;;;;;;;;;;;5068133;28;19994;-58
2022/05/09 11:48:31;;;;;;;;;;;;;;;;;;5068372;28;20355;-58
2022/05/09 11:50:58;;;;;;;;;;;;;;;;;;5048895;28;20311;-58
2022/05/09 11:53:24;;;;;;;;;;;;;;;;;;5062296;28;20418;-58
2022/05/09 11:55:51;;;;;;;;;;;;;;;;;;5063303;28;19916;-57
2022/05/09 11:58:16;;;;;;;;;;;;;;;;;;5060563;28;20340;-58
2022/05/09 12:00:47;;;;;;;;;;;;;;;;;;5067907;28;19908;-57
2022/05/09 12:03:14;;;;;;;0.90;0.90;;;;;;;;;;5067358;28;20429;-56
2022/05/09 12:05:43;;;;;;;1.17;1.10;;;;;;;;;;5066897;28;20028;-56
2022/05/09 12:08:09;;;;;;;0.85;0.80;;;;;;;;;;5068012;28;20025;-56
2022/05/09 12:10:38;;;;;;;0.90;0.90;;;;;;;;;;5067768;28;20054;-56
2022/05/09 12:13:08;;;;;;;0.90;0.90;;;;;;;;;;5068179;28;20028;-56
2022/05/09 12:15:34;;;;;;;0.85;0.85;;;;;;;;;;5065129;28;20047;-57
2022/05/09 12:18:06;;;;;;;0.60;0.60;;;;;;;;;;5066881;28;20472;-56
2022/05/09 12:20:38;;;;;;;0.70;0.70;;;;;;;;;;5066154;28;20112;-56
2022/05/09 12:23:06;;;;;;;0.77;0.77;;;;;;;;;;5063538;28;20024;-55
2022/05/09 12:25:41;;;;;;;1.15;1.05;;;;;;;;;;5063866;28;20036;-57
2022/05/09 12:28:24;;;;;;;1.27;1.17;;;;;;;;;;5067709;28;20036;-56
2022/05/09 12:30:54;;;;;;;1.00;1.00;;;;;;;;;;5066316;28;20024;-56
2022/05/09 12:33:33;;;;;;;1.38;1.27;;;;;;;;;;5069530;28;20507;-56
2022/05/09 12:36:20;;;;;;;1.10;1.10;;;;;;;;;;5068415;28;20123;-56
2022/05/09 12:38:50;;;;;;;1.27;1.17;;;;;;;;;;5055677;28;21008;-56
2022/05/09 12:41:21;;;;;;;1.10;1.10;;;;;;;;;;5072332;28;20039;-56
2022/05/09 12:44:08;;;;;;;0.93;0.93;;;;;;;;;;5065482;28;20521;-56
2022/05/09 12:46:36;;;;;;;1.00;1.00;;;;;;;;;;5067893;28;20028;-57
2022/05/09 12:49:04;;;;;;;1.20;1.10;;;;;;;;;;5067501;28;20040;-57
2022/05/09 12:51:32;;;;;;;0.98;0.98;;;;;;;;;;5066933;28;20032;-58
2022/05/09 12:53:59;;;;;;;1.35;1.00;;;;;;;;;;5077170;28;20120;-58
2022/05/09 12:56:27;;;;;;;1.00;1.00;;;;;;;;;;5065705;28;20025;-58
2022/05/09 12:59:06;;;;;;;0.90;0.90;;;;;;;;;;5072326;28;20107;-57
2022/05/09 13:01:33;;;;;;;1.05;1.00;;;;;;;;;;5087165;28;20509;-57
2022/05/09 13:04:01;;;;;;;1.00;1.00;;;;;;;;;;5069347;28;20483;-57
2022/05/09 13:06:29;;;;;;;1.20;1.10;;;;;;;;;;5066682;28;20031;-57
2022/05/09 13:08:56;;;;;;;0.85;0.85;;;;;;;;;;5066773;28;20525;-58
2022/05/09 13:11:27;;;;;;;1.33;1.23;;;;;;;;;;5066907;28;20107;-58
2022/05/09 13:14:03;;;;;;;1.30;1.20;;;;;;;;;;5069825;28;20035;-57
2022/05/09 13:16:32;;;;;;;1.10;1.10;;;;;;;;;;5067870;28;20078;-58
2022/05/09 13:18:58;;;;;;;0.80;0.80;;;;;;;;;;5068306;28;21069;-58
2022/05/09 13:21:27;;;;;;;1.27;1.17;;;;;;;;;;5068263;28;20078;-57
2022/05/09 13:23:53;;;;;;;1.80;1.70;;;;;;;;;;5069865;28;20453;-58
2022/05/09 13:26:23;;;;;;;1.45;1.35;;;;;;;;;;5065625;28;20040;-57
2022/05/09 13:28:57;;;;;;;1.58;1.35;;;;;;;;;;5064726;28;20462;-58
2022/05/09 13:31:29;;;;;;;1.77;1.67;;;;;;;;;;5063242;28;20516;-58
2022/05/09 13:33:55;;;;;;;1.83;1.73;;;;;;;;;;5064910;28;20479;-58
2022/05/09 13:36:26;;;;;;;1.48;1.38;;;;;;;;;;5062958;28;20661;-58
2022/05/09 13:38:52;;;;;;;1.30;1.20;;;;;;;;;;5061000;28;20028;-57
2022/05/09 13:41:24;;;;;;;1.58;1.40;;;;;;;;;;5063632;28;20036;-57
2022/05/09 13:43:51;;;;;;;0.98;0.95;;;;;;;;;;5063605;28;20403;-57
2022/05/09 13:46:17;;;;;;;1.50;1.40;;;;;;;;;;5064355;28;20529;-58
2022/05/09 13:48:49;;;;;;;1.40;1.30;;;;;;;;;;5066412;28;20036;-58
2022/05/09 13:51:15;;;;;;;1.08;1.08;;;;;;;;;;5064021;28;20037;-58
2022/05/09 13:53:46;;;;;;;1.40;1.30;;;;;;;;;;5068039;28;20093;-58
2022/05/09 13:56:14;;;;;;;1.10;1.10;;;;;;;;;;5068593;28;20027;-58
2022/05/09 13:58:41;;;;;;;1.17;1.08;;;;;;;;;;5065692;28;20035;-58
2022/05/09 14:01:11;;;;;;;1.40;1.30;;;;;;;;;;5055050;28;20450;-58
2022/05/09 14:03:38;;;;;;;1.33;1.23;;;;;;;;;;5056191;28;20437;-58
2022/05/09 14:06:10;;;;;;;1.30;1.20;;;;;;;;;;5068118;28;20491;-58
2022/05/09 14:08:37;;;;;;;1.40;1.30;;;;;;;;;;5081865;28;20032;-58
2022/05/09 14:11:08;;;;;;;1.30;1.20;;;;;;;;;;5069262;28;20123;-59
2022/05/09 14:13:46;;;;;;;1.38;1.27;;;;;;;;;;5069461;28;20032;-58
2022/05/09 14:16:24;;;;;;;2.35;1.40;;;;;;;;;;5069259;28;20060;-59
2022/05/09 14:19:14;;;;;;;1.45;1.30;;;;;;;;;;5069216;28;20508;-59
2022/05/09 14:21:42;;;;;;;1.10;1.00;;;;;;;;;;5061208;28;20035;-58
2022/05/09 14:24:10;;;;;;;1.20;1.10;;;;;;;;;;5067265;28;20136;-59
2022/05/09 14:29:46;;;;;;;1.23;1.13;;;;;;;;;;5067207;28;20121;-59
2022/05/09 14:32:35;;;;;;;1.20;1.10;;;;;;;;;;5073313;28;20032;-58
2022/05/09 14:35:01;;;;;;;1.00;1.00;;;;;;;;;;5062036;28;20036;-59
2022/05/09 14:37:34;;;;;;;1.23;1.13;;;;;;;;;;5080146;28;20024;-59
2022/05/09 14:40:05;;;;;;;1.42;1.33;;;;;;;;;;5071843;28;20084;-59
2022/05/09 14:42:33;;;;;;;1.00;1.00;;;;;;;;;;5069362;28;20024;-60
2022/05/09 14:45:08;;;;;;;1.35;1.25;;;;;;;;;;5069446;28;20032;-59
2022/05/09 14:47:39;;;;;;;1.40;1.30;;;;;;;;;;5068580;28;20024;-59
2022/05/09 14:50:07;;;;;;;1.33;1.20;;;;;;;;;;5066629;28;20506;-59
2022/05/09 14:52:34;;;;;;;1.52;1.42;;;;;;;;;;5068935;28;20048;-59
2022/05/09 14:57:54;;;;;;;1.35;1.25;;;;;;;;;;5067591;28;20039;-58
2022/05/09 15:00:22;;;;;;;1.65;1.45;;;;;;;;;;5069429;28;20036;-59
2022/05/09 15:02:55;;;;;;;1.23;1.17;;;;;;;;;;5061939;28;20017;-59
2022/05/09 15:05:21;;;;;;;1.63;1.53;;;;;;;;;;5049538;28;20032;-58
2022/05/09 15:07:48;;;;;;;1.40;1.30;;;;;;;;;;5049604;28;20262;-59
2022/05/09 15:10:14;;;;;;;1.10;1.10;;;;;;;;;;5058781;28;20529;-58
2022/05/09 15:12:41;;;;;;;1.20;1.10;;;;;;;;;;5063024;28;20024;-58
2022/05/09 15:15:08;;;;;;;1.40;1.30;;;;;;;;;;5069554;28;20024;-59
2022/05/09 15:17:34;;;;;;;1.42;1.33;;;;;;;;;;5052362;28;20520;-59
2022/05/09 15:20:00;;;;;;;1.63;1.52;;;;;;;;;;5069417;28;20052;-59
2022/05/09 15:22:26;;;;;;;1.60;1.50;;;;;;;;;;5068874;28;20025;-59
2022/05/09 15:24:52;;;;;;;2.00;1.40;;;;;;;;;;5068551;28;20028;-59
2022/05/09 15:27:19;;;;;;;1.40;1.30;;;;;;;;;;5064008;28;20037;-59
2022/05/09 15:29:46;;;;;;;2.03;1.48;;;;;;;;;;5049426;28;20238;-58
2022/05/09 15:32:14;;;;;;;1.25;1.15;;;;;;;;;;5065563;28;20336;-59
2022/05/09 15:34:40;;;;;;;1.30;1.20;;;;;;;;;;5068599;28;20397;-59
2022/05/09 15:37:06;;;;;;;1.40;1.30;;;;;;;;;;5068883;28;20115;-58
2022/05/09 15:39:34;;;;;;;1.48;1.38;;;;;;;;;;5068052;28;20028;-59
2022/05/09 15:42:02;;;;;;;1.50;1.40;;;;;;;;;;5068814;28;20526;-59
2022/05/09 15:44:29;;;;;;;1.60;1.27;;;;;;;;;;5068625;28;20077;-58
2022/05/09 15:46:55;;;;;;;1.40;1.30;;;;;;;;;;5068626;28;20482;-59
2022/05/09 15:49:32;;;;;;;1.05;1.05;;;;;;;;;;5068800;28;20496;-59
2022/05/09 15:51:59;;;;;;;1.90;1.60;;;;;;;;;;5070172;28;20079;-59
2022/05/09 15:54:25;;;;;;;1.60;1.50;;;;;;;;;;5075100;28;20059;-59
2022/05/09 15:56:51;;;;;;;1.48;1.38;;;;;;;;;;5080345;28;20521;-59
2022/05/09 15:59:18;;;;;;;1.60;1.50;;;;;;;;;;5073974;28;20392;-59
2022/05/09 16:01:45;;;;;;;1.38;1.27;;;;;;;;;;5087851;28;20028;-58
2022/05/09 16:04:11;;;;;;;1.40;1.30;;;;;;;;;;5088817;28;20669;-59
2022/05/09 16:12:08;;;;;;;1.50;1.40;;;;;;;;;;5068718;28;20090;-59
2022/05/09 16:14:38;;;;;;;1.25;1.15;;;;;;;;;;5068003;28;20032;-58
2022/05/09 16:17:04;;;;;;;1.50;1.40;;;;;;;;;;5068016;28;20037;-58
2022/05/09 16:19:44;;;;;;;1.40;1.30;;;;;;;;;;5063168;28;20396;-59
2022/05/09 16:22:13;;;;;;;1.85;1.50;;;;;;;;;;5048152;28;20025;-59